sensor_id;sensor_type;location;lat;lon;timestamp;temperature;humidity
20998;DHT22;10657;51.276;6.390;2023-04-08T00:01:32;8.90;99.90
20998;DHT22;10657;51.276;6.390;2023-04-08T00:03:59;8.70;99.90
20998;DHT22;10657;51.276;6.390;2023-04-08T00:06:26;8.70;99.90
20998;DHT22;10657;51.276;6.390;2023-04-08T00:08:53;8.80;99.90
20998;DHT22;10657;51.276;6.390;2023-04-08T00:11:19;8.80;99.90
20998;DHT22;10657;51.276;6.390;2023-04-08T00:13:46;8.80;99.90
20998;DHT22;10657;51.276;6.390;2023-04-08T00:16:13;8.80;99.90
20998;DHT22;10657;51.276;6.390;2023-04-08T00:18:39;8.80;99.90
20998;DHT22;10657;51.276;6.390;2023-04-08T00:21:06;8.80;99.90
20998;DHT22;10657;51.276;6.390;2023-04-08T00:23:33;8.80;99.90
20998;DHT22;10657;51.276;6.390;2023-04-08T00:26:00;8.80;99.90
20998;DHT22;10657;51.276;6.390;2023-04-08T00:28:27;8.80;99.90
20998;DHT22;10657;51.276;6.390;2023-04-08T00:30:53;8.80;99.90
20998;DHT22;10657;51.276;6.390;2023-04-08T00:33:20;8.70;99.90
20998;DHT22;10657;51.276;6.390;2023-04-08T00:35:47;8.80;99.90
20998;DHT22;10657;51.276;6.390;2023-04-08T00:38:14;8.80;99.90
20998;DHT22;10657;51.276;6.390;2023-04-08T00:40:40;8.80;99.90
20998;DHT22;10657;51.276;6.390;2023-04-08T00:43:07;8.80;99.90
20998;DHT22;10657;51.276;6.390;2023-04-08T00:45:34;8.70;99.90
20998;DHT22;10657;51.276;6.390;2023-04-08T00:48:02;8.70;99.90
20998;DHT22;10657;51.276;6.390;2023-04-08T00:50:29;8.80;99.90
20998;DHT22;10657;51.276;6.390;2023-04-08T00:52:55;8.80;99.90
20998;DHT22;10657;51.276;6.390;2023-04-08T00:55:22;8.80;99.90
20998;DHT22;10657;51.276;6.390;2023-04-08T00:57:49;8.80;99.90
20998;DHT22;10657;51.276;6.390;2023-04-08T01:00:15;8.80;99.90
20998;DHT22;10657;51.276;6.390;2023-04-08T01:02:59;8.80;99.90
20998;DHT22;10657;51.276;6.390;2023-04-08T01:05:35;8.70;99.90
20998;DHT22;10657;51.276;6.390;2023-04-08T01:08:07;8.80;99.90
20998;DHT22;10657;51.276;6.390;2023-04-08T01:10:36;8.80;99.90
20998;DHT22;10657;51.276;6.390;2023-04-08T01:13:07;8.80;99.90
20998;DHT22;10657;51.276;6.390;2023-04-08T01:15:37;8.80;99.90
20998;DHT22;10657;51.276;6.390;2023-04-08T01:18:10;8.80;99.90
20998;DHT22;10657;51.276;6.390;2023-04-08T01:20:39;8.80;99.90
20998;DHT22;10657;51.276;6.390;2023-04-08T01:25:52;8.80;99.90
20998;DHT22;10657;51.276;6.390;2023-04-08T01:28:20;8.80;99.90
20998;DHT22;10657;51.276;6.390;2023-04-08T01:30:48;8.80;99.90
20998;DHT22;10657;51.276;6.390;2023-04-08T01:33:16;8.80;99.90
20998;DHT22;10657;51.276;6.390;2023-04-08T01:35:44;8.90;99.90
20998;DHT22;10657;51.276;6.390;2023-04-08T01:38:14;8.80;99.90
20998;DHT22;10657;51.276;6.390;2023-04-08T01:40:42;8.80;99.90
20998;DHT22;10657;51.276;6.390;2023-04-08T01:43:12;8.80;99.90
20998;DHT22;10657;51.276;6.390;2023-04-08T01:45:41;8.80;99.90
20998;DHT22;10657;51.276;6.390;2023-04-08T01:48:09;8.80;99.90
20998;DHT22;10657;51.276;6.390;2023-04-08T01:50:38;8.80;99.90
20998;DHT22;10657;51.276;6.390;2023-04-08T01:53:08;8.80;99.90
20998;DHT22;10657;51.276;6.390;2023-04-08T01:55:37;8.90;99.90
20998;DHT22;10657;51.276;6.390;2023-04-08T01:58:06;8.90;99.90
20998;DHT22;10657;51.276;6.390;2023-04-08T02:00:33;8.80;99.90
20998;DHT22;10657;51.276;6.390;2023-04-08T02:03:01;8.90;99.90
20998;DHT22;10657;51.276;6.390;2023-04-08T02:05:31;8.90;99.90
20998;DHT22;10657;51.276;6.390;2023-04-08T02:07:58;8.90;99.90
20998;DHT22;10657;51.276;6.390;2023-04-08T02:10:24;8.80;99.90
20998;DHT22;10657;51.276;6.390;2023-04-08T02:12:51;8.90;99.90
20998;DHT22;10657;51.276;6.390;2023-04-08T02:15:18;8.90;99.90
20998;DHT22;10657;51.276;6.390;2023-04-08T02:17:48;8.90;99.90
20998;DHT22;10657;51.276;6.390;2023-04-08T02:20:32;8.90;99.90
20998;DHT22;10657;51.276;6.390;2023-04-08T02:25:38;8.80;99.90
20998;DHT22;10657;51.276;6.390;2023-04-08T02:28:09;8.80;99.90
20998;DHT22;10657;51.276;6.390;2023-04-08T02:30:41;8.90;99.90
20998;DHT22;10657;51.276;6.390;2023-04-08T02:33:08;9.00;99.90
20998;DHT22;10657;51.276;6.390;2023-04-08T02:35:35;9.00;99.90
20998;DHT22;10657;51.276;6.390;2023-04-08T02:38:04;8.90;99.90
20998;DHT22;10657;51.276;6.390;2023-04-08T02:40:32;9.00;99.90
20998;DHT22;10657;51.276;6.390;2023-04-08T02:42:59;9.00;99.90
20998;DHT22;10657;51.276;6.390;2023-04-08T02:45:30;9.00;99.90
20998;DHT22;10657;51.276;6.390;2023-04-08T02:47:59;9.00;99.90
20998;DHT22;10657;51.276;6.390;2023-04-08T02:50:26;9.00;99.90
20998;DHT22;10657;51.276;6.390;2023-04-08T02:52:52;9.00;99.90
20998;DHT22;10657;51.276;6.390;2023-04-08T02:55:19;9.00;99.90
20998;DHT22;10657;51.276;6.390;2023-04-08T02:57:46;8.90;99.90
20998;DHT22;10657;51.276;6.390;2023-04-08T03:00:14;8.90;99.90
20998;DHT22;10657;51.276;6.390;2023-04-08T03:02:41;8.90;99.90
20998;DHT22;10657;51.276;6.390;2023-04-08T03:05:08;9.00;99.90
20998;DHT22;10657;51.276;6.390;2023-04-08T03:07:35;8.90;99.90
20998;DHT22;10657;51.276;6.390;2023-04-08T03:10:02;8.90;99.90
20998;DHT22;10657;51.276;6.390;2023-04-08T03:12:29;8.90;99.90
20998;DHT22;10657;51.276;6.390;2023-04-08T03:14:56;9.00;99.90
20998;DHT22;10657;51.276;6.390;2023-04-08T03:17:23;8.90;99.90
20998;DHT22;10657;51.276;6.390;2023-04-08T03:19:50;8.90;99.90
20998;DHT22;10657;51.276;6.390;2023-04-08T03:22:16;8.90;99.90
20998;DHT22;10657;51.276;6.390;2023-04-08T03:24:43;8.90;99.90
20998;DHT22;10657;51.276;6.390;2023-04-08T03:27:10;8.90;99.90
20998;DHT22;10657;51.276;6.390;2023-04-08T03:29:38;8.90;99.90
20998;DHT22;10657;51.276;6.390;2023-04-08T03:32:05;9.00;99.90
20998;DHT22;10657;51.276;6.390;2023-04-08T03:34:33;8.90;99.90
20998;DHT22;10657;51.276;6.390;2023-04-08T03:37:01;8.80;99.90
20998;DHT22;10657;51.276;6.390;2023-04-08T03:39:27;8.90;99.90
20998;DHT22;10657;51.276;6.390;2023-04-08T03:41:54;8.90;99.90
20998;DHT22;10657;51.276;6.390;2023-04-08T03:44:21;8.90;99.90
20998;DHT22;10657;51.276;6.390;2023-04-08T03:46:47;9.00;99.90
20998;DHT22;10657;51.276;6.390;2023-04-08T03:49:14;9.00;99.90
20998;DHT22;10657;51.276;6.390;2023-04-08T03:51:41;9.00;99.90
20998;DHT22;10657;51.276;6.390;2023-04-08T03:54:07;8.90;99.90
20998;DHT22;10657;51.276;6.390;2023-04-08T03:56:34;8.90;99.90
20998;DHT22;10657;51.276;6.390;2023-04-08T03:59:01;8.90;99.90
20998;DHT22;10657;51.276;6.390;2023-04-08T04:01:27;9.00;99.90
20998;DHT22;10657;51.276;6.390;2023-04-08T04:03:55;8.90;99.90
20998;DHT22;10657;51.276;6.390;2023-04-08T04:06:22;8.90;99.90
20998;DHT22;10657;51.276;6.390;2023-04-08T04:08:49;9.00;99.90
20998;DHT22;10657;51.276;6.390;2023-04-08T04:11:18;8.90;99.90
20998;DHT22;10657;51.276;6.390;2023-04-08T04:13:45;9.00;99.90
20998;DHT22;10657;51.276;6.390;2023-04-08T04:16:11;8.90;99.90
20998;DHT22;10657;51.276;6.390;2023-04-08T04:18:38;8.90;99.90
20998;DHT22;10657;51.276;6.390;2023-04-08T04:21:05;8.90;99.90
20998;DHT22;10657;51.276;6.390;2023-04-08T04:23:33;8.90;99.90
20998;DHT22;10657;51.276;6.390;2023-04-08T04:25:59;8.90;99.90
20998;DHT22;10657;51.276;6.390;2023-04-08T04:28:26;8.80;99.90
20998;DHT22;10657;51.276;6.390;2023-04-08T04:30:53;8.80;99.90
20998;DHT22;10657;51.276;6.390;2023-04-08T04:33:22;8.80;99.90
20998;DHT22;10657;51.276;6.390;2023-04-08T04:35:48;8.80;99.90
20998;DHT22;10657;51.276;6.390;2023-04-08T04:38:15;8.80;99.90
20998;DHT22;10657;51.276;6.390;2023-04-08T04:40:42;8.80;99.90
20998;DHT22;10657;51.276;6.390;2023-04-08T04:43:09;8.80;99.90
20998;DHT22;10657;51.276;6.390;2023-04-08T04:45:36;8.80;99.90
20998;DHT22;10657;51.276;6.390;2023-04-08T04:48:03;8.80;99.90
20998;DHT22;10657;51.276;6.390;2023-04-08T04:50:30;8.80;99.90
20998;DHT22;10657;51.276;6.390;2023-04-08T04:52:56;8.80;99.90
20998;DHT22;10657;51.276;6.390;2023-04-08T04:55:23;8.80;99.90
20998;DHT22;10657;51.276;6.390;2023-04-08T04:57:50;8.80;99.90
20998;DHT22;10657;51.276;6.390;2023-04-08T05:00:16;8.80;99.90
20998;DHT22;10657;51.276;6.390;2023-04-08T05:02:43;8.80;99.90
20998;DHT22;10657;51.276;6.390;2023-04-08T05:05:10;8.80;99.90
20998;DHT22;10657;51.276;6.390;2023-04-08T05:07:37;8.80;99.90
20998;DHT22;10657;51.276;6.390;2023-04-08T05:10:05;8.80;99.90
20998;DHT22;10657;51.276;6.390;2023-04-08T05:12:32;8.80;99.90
20998;DHT22;10657;51.276;6.390;2023-04-08T05:14:59;8.80;99.90
20998;DHT22;10657;51.276;6.390;2023-04-08T05:17:26;8.80;99.90
20998;DHT22;10657;51.276;6.390;2023-04-08T05:19:52;8.80;99.90
20998;DHT22;10657;51.276;6.390;2023-04-08T05:22:19;8.80;99.90
20998;DHT22;10657;51.276;6.390;2023-04-08T05:24:45;8.80;99.90
20998;DHT22;10657;51.276;6.390;2023-04-08T05:27:12;8.80;99.90
20998;DHT22;10657;51.276;6.390;2023-04-08T05:29:39;8.80;99.90
20998;DHT22;10657;51.276;6.390;2023-04-08T05:32:05;8.80;99.90
20998;DHT22;10657;51.276;6.390;2023-04-08T05:34:32;8.90;99.90
20998;DHT22;10657;51.276;6.390;2023-04-08T05:36:59;8.80;99.90
20998;DHT22;10657;51.276;6.390;2023-04-08T05:39:26;8.80;99.90
20998;DHT22;10657;51.276;6.390;2023-04-08T05:41:52;8.90;99.90
20998;DHT22;10657;51.276;6.390;2023-04-08T05:44:19;8.80;99.90
20998;DHT22;10657;51.276;6.390;2023-04-08T05:46:46;8.90;99.90
20998;DHT22;10657;51.276;6.390;2023-04-08T05:49:12;8.90;99.90
20998;DHT22;10657;51.276;6.390;2023-04-08T05:51:39;8.90;99.90
20998;DHT22;10657;51.276;6.390;2023-04-08T05:54:06;8.80;99.90
20998;DHT22;10657;51.276;6.390;2023-04-08T05:56:33;9.00;99.90
20998;DHT22;10657;51.276;6.390;2023-04-08T05:59:00;8.90;99.90
20998;DHT22;10657;51.276;6.390;2023-04-08T06:01:26;8.90;99.90
20998;DHT22;10657;51.276;6.390;2023-04-08T06:03:53;8.90;99.90
20998;DHT22;10657;51.276;6.390;2023-04-08T06:06:22;8.80;99.90
20998;DHT22;10657;51.276;6.390;2023-04-08T06:08:48;8.90;99.90
20998;DHT22;10657;51.276;6.390;2023-04-08T06:11:16;8.80;99.90
20998;DHT22;10657;51.276;6.390;2023-04-08T06:13:43;8.80;99.90
20998;DHT22;10657;51.276;6.390;2023-04-08T06:16:14;8.90;99.90
20998;DHT22;10657;51.276;6.390;2023-04-08T06:18:40;8.90;99.90
20998;DHT22;10657;51.276;6.390;2023-04-08T06:21:07;8.80;99.90
20998;DHT22;10657;51.276;6.390;2023-04-08T06:23:34;8.90;99.90
20998;DHT22;10657;51.276;6.390;2023-04-08T06:26:01;8.80;99.90
20998;DHT22;10657;51.276;6.390;2023-04-08T06:28:31;8.90;99.90
20998;DHT22;10657;51.276;6.390;2023-04-08T06:30:58;9.00;99.90
20998;DHT22;10657;51.276;6.390;2023-04-08T06:33:25;9.00;99.90
20998;DHT22;10657;51.276;6.390;2023-04-08T06:36:03;9.00;99.90
20998;DHT22;10657;51.276;6.390;2023-04-08T06:38:30;9.00;99.90
20998;DHT22;10657;51.276;6.390;2023-04-08T06:41:06;9.00;99.90
20998;DHT22;10657;51.276;6.390;2023-04-08T06:43:34;9.10;99.90
20998;DHT22;10657;51.276;6.390;2023-04-08T06:46:03;9.20;99.90
20998;DHT22;10657;51.276;6.390;2023-04-08T06:48:29;9.10;99.90
20998;DHT22;10657;51.276;6.390;2023-04-08T06:50:57;9.10;99.90
20998;DHT22;10657;51.276;6.390;2023-04-08T06:53:25;9.10;99.90
20998;DHT22;10657;51.276;6.390;2023-04-08T06:55:52;9.10;99.90
20998;DHT22;10657;51.276;6.390;2023-04-08T06:58:18;9.10;99.90
20998;DHT22;10657;51.276;6.390;2023-04-08T07:00:45;9.20;99.90
20998;DHT22;10657;51.276;6.390;2023-04-08T07:03:12;9.20;99.90
20998;DHT22;10657;51.276;6.390;2023-04-08T07:05:39;9.20;99.90
20998;DHT22;10657;51.276;6.390;2023-04-08T07:08:08;9.10;99.90
20998;DHT22;10657;51.276;6.390;2023-04-08T07:10:34;9.10;99.90
20998;DHT22;10657;51.276;6.390;2023-04-08T07:13:02;9.10;99.90
20998;DHT22;10657;51.276;6.390;2023-04-08T07:15:28;9.10;99.90
20998;DHT22;10657;51.276;6.390;2023-04-08T07:17:55;9.10;99.90
20998;DHT22;10657;51.276;6.390;2023-04-08T07:20:22;9.10;99.90
20998;DHT22;10657;51.276;6.390;2023-04-08T07:22:49;9.10;99.90
20998;DHT22;10657;51.276;6.390;2023-04-08T07:25:16;9.10;99.90
20998;DHT22;10657;51.276;6.390;2023-04-08T07:27:43;9.30;99.90
20998;DHT22;10657;51.276;6.390;2023-04-08T07:30:09;9.30;99.90
20998;DHT22;10657;51.276;6.390;2023-04-08T07:32:36;9.30;99.90
20998;DHT22;10657;51.276;6.390;2023-04-08T07:35:03;9.30;99.90
20998;DHT22;10657;51.276;6.390;2023-04-08T07:37:30;9.30;99.90
20998;DHT22;10657;51.276;6.390;2023-04-08T07:39:57;9.30;99.90
20998;DHT22;10657;51.276;6.390;2023-04-08T07:42:23;9.20;99.90
20998;DHT22;10657;51.276;6.390;2023-04-08T07:44:50;9.20;99.90
20998;DHT22;10657;51.276;6.390;2023-04-08T07:47:17;9.00;99.90
20998;DHT22;10657;51.276;6.390;2023-04-08T07:49:47;9.00;99.90
20998;DHT22;10657;51.276;6.390;2023-04-08T07:52:14;9.10;99.90
20998;DHT22;10657;51.276;6.390;2023-04-08T07:54:41;9.00;99.90
20998;DHT22;10657;51.276;6.390;2023-04-08T07:57:07;8.80;99.90
20998;DHT22;10657;51.276;6.390;2023-04-08T07:59:34;8.80;99.90
20998;DHT22;10657;51.276;6.390;2023-04-08T08:02:01;8.80;99.90
20998;DHT22;10657;51.276;6.390;2023-04-08T08:04:28;8.80;99.90
20998;DHT22;10657;51.276;6.390;2023-04-08T08:06:55;8.80;99.90
20998;DHT22;10657;51.276;6.390;2023-04-08T08:09:22;8.90;99.90
20998;DHT22;10657;51.276;6.390;2023-04-08T08:11:48;9.00;99.90
20998;DHT22;10657;51.276;6.390;2023-04-08T08:14:15;9.10;99.90
20998;DHT22;10657;51.276;6.390;2023-04-08T08:16:42;9.20;99.90
20998;DHT22;10657;51.276;6.390;2023-04-08T08:19:10;9.30;99.90
20998;DHT22;10657;51.276;6.390;2023-04-08T08:21:37;9.20;99.90
20998;DHT22;10657;51.276;6.390;2023-04-08T08:24:05;9.30;99.90
20998;DHT22;10657;51.276;6.390;2023-04-08T08:26:35;9.30;99.90
20998;DHT22;10657;51.276;6.390;2023-04-08T08:29:05;9.20;99.90
20998;DHT22;10657;51.276;6.390;2023-04-08T08:31:34;9.40;99.90
20998;DHT22;10657;51.276;6.390;2023-04-08T08:34:01;9.40;99.90
20998;DHT22;10657;51.276;6.390;2023-04-08T08:36:28;9.40;99.90
20998;DHT22;10657;51.276;6.390;2023-04-08T08:38:54;9.30;99.90
20998;DHT22;10657;51.276;6.390;2023-04-08T08:41:21;9.20;99.90
20998;DHT22;10657;51.276;6.390;2023-04-08T08:43:48;9.40;99.90
20998;DHT22;10657;51.276;6.390;2023-04-08T08:46:17;9.50;99.90
20998;DHT22;10657;51.276;6.390;2023-04-08T08:48:44;9.40;99.90
20998;DHT22;10657;51.276;6.390;2023-04-08T08:51:12;9.40;99.90
20998;DHT22;10657;51.276;6.390;2023-04-08T08:53:39;9.40;99.90
20998;DHT22;10657;51.276;6.390;2023-04-08T08:56:10;9.50;99.90
20998;DHT22;10657;51.276;6.390;2023-04-08T08:58:40;9.60;99.90
20998;DHT22;10657;51.276;6.390;2023-04-08T09:01:32;9.50;99.90
20998;DHT22;10657;51.276;6.390;2023-04-08T09:06:44;9.30;99.90
20998;DHT22;10657;51.276;6.390;2023-04-08T09:09:12;9.30;99.90
20998;DHT22;10657;51.276;6.390;2023-04-08T09:11:44;9.30;99.90
20998;DHT22;10657;51.276;6.390;2023-04-08T09:14:22;9.40;99.90
20998;DHT22;10657;51.276;6.390;2023-04-08T09:16:50;9.40;99.90
20998;DHT22;10657;51.276;6.390;2023-04-08T09:19:18;9.20;99.90
20998;DHT22;10657;51.276;6.390;2023-04-08T09:21:44;9.30;99.90
20998;DHT22;10657;51.276;6.390;2023-04-08T09:24:29;9.20;99.90
20998;DHT22;10657;51.276;6.390;2023-04-08T09:26:56;9.30;99.90
20998;DHT22;10657;51.276;6.390;2023-04-08T09:29:24;9.40;99.90
20998;DHT22;10657;51.276;6.390;2023-04-08T09:32:00;9.40;99.90
20998;DHT22;10657;51.276;6.390;2023-04-08T09:34:28;9.30;99.90
20998;DHT22;10657;51.276;6.390;2023-04-08T09:36:55;9.30;99.90
20998;DHT22;10657;51.276;6.390;2023-04-08T09:39:22;9.30;99.90
20998;DHT22;10657;51.276;6.390;2023-04-08T09:41:50;9.20;99.90
20998;DHT22;10657;51.276;6.390;2023-04-08T09:44:19;9.20;99.90
20998;DHT22;10657;51.276;6.390;2023-04-08T09:49:26;9.20;99.90
20998;DHT22;10657;51.276;6.390;2023-04-08T09:54:47;9.30;99.90
20998;DHT22;10657;51.276;6.390;2023-04-08T09:57:21;9.40;99.90
20998;DHT22;10657;51.276;6.390;2023-04-08T10:00:01;9.40;99.90
20998;DHT22;10657;51.276;6.390;2023-04-08T10:02:32;9.30;99.90
20998;DHT22;10657;51.276;6.390;2023-04-08T10:05:06;9.40;99.90
20998;DHT22;10657;51.276;6.390;2023-04-08T10:07:34;9.40;99.90
20998;DHT22;10657;51.276;6.390;2023-04-08T10:10:01;9.40;99.90
20998;DHT22;10657;51.276;6.390;2023-04-08T10:12:29;9.40;99.90
20998;DHT22;10657;51.276;6.390;2023-04-08T10:17:52;9.40;99.90
20998;DHT22;10657;51.276;6.390;2023-04-08T10:23:08;9.50;99.90
20998;DHT22;10657;51.276;6.390;2023-04-08T10:25:37;9.50;99.90
20998;DHT22;10657;51.276;6.390;2023-04-08T10:30:44;9.80;99.90
20998;DHT22;10657;51.276;6.390;2023-04-08T10:33:22;9.90;99.90
20998;DHT22;10657;51.276;6.390;2023-04-08T10:38:21;10.10;99.90
20998;DHT22;10657;51.276;6.390;2023-04-08T10:40:48;10.20;99.90
20998;DHT22;10657;51.276;6.390;2023-04-08T10:43:16;10.10;99.90
20998;DHT22;10657;51.276;6.390;2023-04-08T10:45:43;10.20;99.90
20998;DHT22;10657;51.276;6.390;2023-04-08T10:48:22;10.20;99.90
20998;DHT22;10657;51.276;6.390;2023-04-08T10:50:54;10.10;99.90
20998;DHT22;10657;51.276;6.390;2023-04-08T10:53:32;10.20;99.90
20998;DHT22;10657;51.276;6.390;2023-04-08T10:58:33;10.40;99.90
20998;DHT22;10657;51.276;6.390;2023-04-08T11:01:06;10.60;99.90
20998;DHT22;10657;51.276;6.390;2023-04-08T11:03:34;10.80;99.90
20998;DHT22;10657;51.276;6.390;2023-04-08T11:06:03;10.80;99.90
20998;DHT22;10657;51.276;6.390;2023-04-08T11:08:31;10.90;99.90
20998;DHT22;10657;51.276;6.390;2023-04-08T11:10:59;11.00;99.90
20998;DHT22;10657;51.276;6.390;2023-04-08T11:13:29;11.10;99.90
20998;DHT22;10657;51.276;6.390;2023-04-08T11:15:58;11.40;99.90
20998;DHT22;10657;51.276;6.390;2023-04-08T11:18:25;11.60;99.90
20998;DHT22;10657;51.276;6.390;2023-04-08T11:20:53;11.80;99.90
20998;DHT22;10657;51.276;6.390;2023-04-08T11:23:19;11.90;99.90
20998;DHT22;10657;51.276;6.390;2023-04-08T11:25:48;11.90;99.90
20998;DHT22;10657;51.276;6.390;2023-04-08T11:28:16;11.90;99.90
20998;DHT22;10657;51.276;6.390;2023-04-08T11:30:43;11.80;99.90
20998;DHT22;10657;51.276;6.390;2023-04-08T11:33:12;12.10;99.90
20998;DHT22;10657;51.276;6.390;2023-04-08T11:35:42;12.00;99.90
20998;DHT22;10657;51.276;6.390;2023-04-08T11:38:10;11.90;99.90
20998;DHT22;10657;51.276;6.390;2023-04-08T11:40:37;12.00;99.90
20998;DHT22;10657;51.276;6.390;2023-04-08T11:43:12;12.20;99.90
20998;DHT22;10657;51.276;6.390;2023-04-08T11:45:42;12.30;99.90
20998;DHT22;10657;51.276;6.390;2023-04-08T11:48:13;12.30;99.90
20998;DHT22;10657;51.276;6.390;2023-04-08T11:50:41;12.30;99.90
20998;DHT22;10657;51.276;6.390;2023-04-08T11:53:21;12.30;99.90
20998;DHT22;10657;51.276;6.390;2023-04-08T11:55:48;12.10;99.90
20998;DHT22;10657;51.276;6.390;2023-04-08T11:58:15;12.50;99.90
20998;DHT22;10657;51.276;6.390;2023-04-08T12:00:42;12.50;99.90
20998;DHT22;10657;51.276;6.390;2023-04-08T12:03:09;12.50;99.90
20998;DHT22;10657;51.276;6.390;2023-04-08T12:05:37;12.50;99.90
20998;DHT22;10657;51.276;6.390;2023-04-08T12:08:03;12.50;99.90
20998;DHT22;10657;51.276;6.390;2023-04-08T12:10:30;12.50;99.90
20998;DHT22;10657;51.276;6.390;2023-04-08T12:12:57;12.30;99.90
20998;DHT22;10657;51.276;6.390;2023-04-08T12:15:23;12.30;99.90
20998;DHT22;10657;51.276;6.390;2023-04-08T12:17:50;12.20;99.90
20998;DHT22;10657;51.276;6.390;2023-04-08T12:20:17;12.00;99.90
20998;DHT22;10657;51.276;6.390;2023-04-08T12:22:44;12.00;99.90
20998;DHT22;10657;51.276;6.390;2023-04-08T12:25:10;12.00;99.90
20998;DHT22;10657;51.276;6.390;2023-04-08T12:27:37;12.20;99.90
20998;DHT22;10657;51.276;6.390;2023-04-08T12:30:04;12.20;99.90
20998;DHT22;10657;51.276;6.390;2023-04-08T12:32:31;12.20;99.90
20998;DHT22;10657;51.276;6.390;2023-04-08T12:34:58;12.20;99.90
20998;DHT22;10657;51.276;6.390;2023-04-08T12:37:25;12.10;99.90
20998;DHT22;10657;51.276;6.390;2023-04-08T12:39:53;12.00;99.90
20998;DHT22;10657;51.276;6.390;2023-04-08T12:42:19;12.10;99.90
20998;DHT22;10657;51.276;6.390;2023-04-08T12:44:46;12.10;99.90
20998;DHT22;10657;51.276;6.390;2023-04-08T12:47:12;11.90;99.90
20998;DHT22;10657;51.276;6.390;2023-04-08T12:49:39;12.00;99.90
20998;DHT22;10657;51.276;6.390;2023-04-08T12:52:09;12.00;99.90
20998;DHT22;10657;51.276;6.390;2023-04-08T12:54:35;11.90;99.90
20998;DHT22;10657;51.276;6.390;2023-04-08T12:57:02;12.00;99.90
20998;DHT22;10657;51.276;6.390;2023-04-08T12:59:29;12.10;99.90
20998;DHT22;10657;51.276;6.390;2023-04-08T13:01:57;12.00;99.90
20998;DHT22;10657;51.276;6.390;2023-04-08T13:04:24;12.00;99.90
20998;DHT22;10657;51.276;6.390;2023-04-08T13:06:51;12.00;99.90
20998;DHT22;10657;51.276;6.390;2023-04-08T13:09:17;12.00;99.90
20998;DHT22;10657;51.276;6.390;2023-04-08T13:11:44;12.20;99.90
20998;DHT22;10657;51.276;6.390;2023-04-08T13:14:11;12.20;99.90
20998;DHT22;10657;51.276;6.390;2023-04-08T13:16:39;12.20;99.90
20998;DHT22;10657;51.276;6.390;2023-04-08T13:19:05;12.20;99.90
20998;DHT22;10657;51.276;6.390;2023-04-08T13:21:32;12.40;99.90
20998;DHT22;10657;51.276;6.390;2023-04-08T13:23:59;12.40;99.90
20998;DHT22;10657;51.276;6.390;2023-04-08T13:26:25;12.20;99.90
20998;DHT22;10657;51.276;6.390;2023-04-08T13:28:52;12.10;99.90
20998;DHT22;10657;51.276;6.390;2023-04-08T13:31:24;12.30;99.90
20998;DHT22;10657;51.276;6.390;2023-04-08T13:33:51;12.20;99.90
20998;DHT22;10657;51.276;6.390;2023-04-08T13:36:20;12.10;99.90
20998;DHT22;10657;51.276;6.390;2023-04-08T13:38:46;12.30;99.90
20998;DHT22;10657;51.276;6.390;2023-04-08T13:41:13;12.40;99.90
20998;DHT22;10657;51.276;6.390;2023-04-08T13:43:39;12.50;99.90
20998;DHT22;10657;51.276;6.390;2023-04-08T13:46:07;12.20;99.90
20998;DHT22;10657;51.276;6.390;2023-04-08T13:48:34;12.20;99.90
20998;DHT22;10657;51.276;6.390;2023-04-08T13:51:01;11.90;99.90
20998;DHT22;10657;51.276;6.390;2023-04-08T13:53:27;12.00;99.90
20998;DHT22;10657;51.276;6.390;2023-04-08T13:55:54;11.90;99.90
20998;DHT22;10657;51.276;6.390;2023-04-08T13:58:22;12.00;99.90
20998;DHT22;10657;51.276;6.390;2023-04-08T14:00:50;11.90;99.90
20998;DHT22;10657;51.276;6.390;2023-04-08T14:03:18;11.70;99.90
20998;DHT22;10657;51.276;6.390;2023-04-08T14:05:44;11.70;99.90
20998;DHT22;10657;51.276;6.390;2023-04-08T14:08:11;11.80;99.90
20998;DHT22;10657;51.276;6.390;2023-04-08T14:10:39;11.70;99.90
20998;DHT22;10657;51.276;6.390;2023-04-08T14:13:07;11.60;99.90
20998;DHT22;10657;51.276;6.390;2023-04-08T14:15:34;11.60;99.90
20998;DHT22;10657;51.276;6.390;2023-04-08T14:18:00;11.70;99.90
20998;DHT22;10657;51.276;6.390;2023-04-08T14:20:27;11.80;99.90
20998;DHT22;10657;51.276;6.390;2023-04-08T14:22:54;11.70;99.90
20998;DHT22;10657;51.276;6.390;2023-04-08T14:25:22;11.70;99.90
20998;DHT22;10657;51.276;6.390;2023-04-08T14:27:49;12.00;99.90
20998;DHT22;10657;51.276;6.390;2023-04-08T14:30:24;12.10;99.90
20998;DHT22;10657;51.276;6.390;2023-04-08T14:32:52;12.20;99.90
20998;DHT22;10657;51.276;6.390;2023-04-08T14:35:19;12.30;99.90
20998;DHT22;10657;51.276;6.390;2023-04-08T14:37:46;12.20;99.90
20998;DHT22;10657;51.276;6.390;2023-04-08T14:40:13;12.50;99.90
20998;DHT22;10657;51.276;6.390;2023-04-08T14:42:40;12.30;99.90
20998;DHT22;10657;51.276;6.390;2023-04-08T14:45:07;12.40;99.90
20998;DHT22;10657;51.276;6.390;2023-04-08T14:47:34;12.50;99.90
20998;DHT22;10657;51.276;6.390;2023-04-08T14:50:01;13.00;99.90
20998;DHT22;10657;51.276;6.390;2023-04-08T14:52:27;13.10;99.90
20998;DHT22;10657;51.276;6.390;2023-04-08T14:54:54;13.10;99.90
20998;DHT22;10657;51.276;6.390;2023-04-08T14:57:21;13.00;99.90
20998;DHT22;10657;51.276;6.390;2023-04-08T14:59:47;13.00;99.90
20998;DHT22;10657;51.276;6.390;2023-04-08T15:02:14;13.10;99.90
20998;DHT22;10657;51.276;6.390;2023-04-08T15:04:41;13.10;99.90
20998;DHT22;10657;51.276;6.390;2023-04-08T15:07:08;13.10;99.90
20998;DHT22;10657;51.276;6.390;2023-04-08T15:09:34;13.50;99.90
20998;DHT22;10657;51.276;6.390;2023-04-08T15:12:01;13.80;99.90
20998;DHT22;10657;51.276;6.390;2023-04-08T15:14:28;14.20;99.90
20998;DHT22;10657;51.276;6.390;2023-04-08T15:16:55;14.60;99.90
20998;DHT22;10657;51.276;6.390;2023-04-08T15:19:21;14.70;99.90
20998;DHT22;10657;51.276;6.390;2023-04-08T15:21:49;14.50;99.90
20998;DHT22;10657;51.276;6.390;2023-04-08T15:24:15;14.00;99.90
20998;DHT22;10657;51.276;6.390;2023-04-08T15:26:42;13.70;99.90
20998;DHT22;10657;51.276;6.390;2023-04-08T15:29:08;14.20;99.90
20998;DHT22;10657;51.276;6.390;2023-04-08T15:31:35;14.90;99.90
20998;DHT22;10657;51.276;6.390;2023-04-08T15:34:02;15.20;99.90
20998;DHT22;10657;51.276;6.390;2023-04-08T15:36:29;15.70;99.90
20998;DHT22;10657;51.276;6.390;2023-04-08T15:38:56;16.20;99.90
20998;DHT22;10657;51.276;6.390;2023-04-08T15:41:22;16.00;99.90
20998;DHT22;10657;51.276;6.390;2023-04-08T15:43:51;16.20;99.90
20998;DHT22;10657;51.276;6.390;2023-04-08T15:46:21;16.10;99.90
20998;DHT22;10657;51.276;6.390;2023-04-08T15:48:49;15.30;99.90
20998;DHT22;10657;51.276;6.390;2023-04-08T15:51:16;15.20;99.90
20998;DHT22;10657;51.276;6.390;2023-04-08T15:53:43;15.00;99.90
20998;DHT22;10657;51.276;6.390;2023-04-08T15:56:13;15.30;99.90
20998;DHT22;10657;51.276;6.390;2023-04-08T15:58:41;15.50;99.90
20998;DHT22;10657;51.276;6.390;2023-04-08T16:01:08;15.30;99.90
20998;DHT22;10657;51.276;6.390;2023-04-08T16:03:34;15.30;99.90
20998;DHT22;10657;51.276;6.390;2023-04-08T16:06:01;15.30;99.90
20998;DHT22;10657;51.276;6.390;2023-04-08T16:08:28;15.50;99.90
20998;DHT22;10657;51.276;6.390;2023-04-08T16:10:59;15.40;99.90